Soleil Laural Canyon Historical Data
Daily Summary for February 14, 2018 Units:  Both    English   Metric
Daily Weekly Monthly Yearly Custom
  High: Low: Average:
Temperature: 48.7 °F /  9.3 °C 22.8 °F /  -5.1 °C 35.1 °F /  1.7 °C
Dew Point: 36.9 °F /  2.7 °C 19.4 °F /  -7 °C 29.4 °F /  -1.4 °C
Humidity: 91% 62% 80%
Wind Speed: 15.5mph /  24.9km/h - 6.8mph /  10.9km/h
Wind Gust: 21.9mph /  35.2km/h - -
Wind- - SSW
Pressure: 30.08 in /  1018.5 hPa 29.68 in /  1005 hPa -
Precipitation: 0.00 in /  0 mm    
Historical Graphs
 
 
Tabular Data for February 14, 2018
Time Temperature Dew Point Pressure Wind Wind Speed Wind Gust Humidity Rainfall Rate (Hourly) solar
00:03 23.9 °F /  -4.5 °C 19.5 °F /  -6.9 °C 30.08in /  1018.5hPa South 1.4mph /  2.3km/h 1.4mph /  2.3km/h 83% 0.00in /  0mm 0.0 W/m2
00:09 23.8 °F /  -4.6 °C 19.4 °F /  -7 °C 30.08in /  1018.5hPa South 1.3mph /  2.1km/h 1.3mph /  2.1km/h 83% 0.00in /  0mm 0.0 W/m2
00:14 23.6 °F /  -4.7 °C 19.5 °F /  -6.9 °C 30.08in /  1018.5hPa South 0.1mph /  0.2km/h 1.2mph /  1.9km/h 84% 0.00in /  0mm 0.0 W/m2
00:19 23.5 °F /  -4.7 °C 19.4 °F /  -7 °C 30.08in /  1018.5hPa South 0.8mph /  1.3km/h 1.2mph /  1.9km/h 84% 0.00in /  0mm 0.0 W/m2
00:24 23.5 °F /  -4.7 °C 19.7 °F /  -6.8 °C 30.08in /  1018.5hPa South 1.4mph /  2.3km/h 1.4mph /  2.3km/h 85% 0.00in /  0mm 0.0 W/m2
00:29 23.4 °F /  -4.8 °C 19.6 °F /  -6.9 °C 30.08in /  1018.5hPa South 0.6mph /  1km/h 1.2mph /  1.9km/h 85% 0.00in /  0mm 0.0 W/m2
00:34 23.3 °F /  -4.8 °C 19.7 °F /  -6.8 °C 30.07in /  1018.2hPa South 0.7mph /  1.1km/h 1.2mph /  1.9km/h 86% 0.00in /  0mm 0.0 W/m2
00:39 23.3 °F /  -4.8 °C 19.7 °F /  -6.8 °C 30.07in /  1018.2hPa South 0.9mph /  1.4km/h 1.2mph /  1.9km/h 86% 0.00in /  0mm 0.0 W/m2
00:44 23.3 °F /  -4.8 °C 19.7 °F /  -6.8 °C 30.07in /  1018.2hPa South 0.3mph /  0.5km/h 2.3mph /  3.7km/h 86% 0.00in /  0mm 0.0 W/m2
00:50 23.3 °F /  -4.8 °C 19.7 °F /  -6.8 °C 30.07in /  1018.2hPa South 0.5mph /  0.8km/h 1.2mph /  1.9km/h 86% 0.00in /  0mm 0.0 W/m2
00:55 23.3 °F /  -4.8 °C 19.7 °F /  -6.8 °C 30.07in /  1018.2hPa South 1.0mph /  1.6km/h 1.2mph /  1.9km/h 86% 0.00in /  0mm 0.0 W/m2
01:00 23.3 °F /  -4.8 °C 19.7 °F /  -6.8 °C 30.06in /  1017.8hPa South 1.2mph /  1.9km/h 2.3mph /  3.7km/h 86% 0.00in /  0mm 0.0 W/m2
01:05 23.2 °F /  -4.9 °C 19.6 °F /  -6.9 °C 30.06in /  1017.8hPa South 0.1mph /  0.2km/h 1.2mph /  1.9km/h 86% 0.00in /  0mm 0.0 W/m2
01:10 23.1 °F /  -4.9 °C 19.5 °F /  -6.9 °C 30.06in /  1017.8hPa South 1.4mph /  2.3km/h 2.3mph /  3.7km/h 86% 0.00in /  0mm 0.0 W/m2
01:15 23.1 °F /  -4.9 °C 19.5 °F /  -6.9 °C 30.06in /  1017.8hPa South 0.9mph /  1.4km/h 2.3mph /  3.7km/h 86% 0.00in /  0mm 0.0 W/m2
01:20 23.0 °F /  -5 °C 19.7 °F /  -6.8 °C 30.06in /  1017.8hPa South 0.4mph /  0.6km/h 1.2mph /  1.9km/h 87% 0.00in /  0mm 0.0 W/m2
01:25 23.0 °F /  -5 °C 19.7 °F /  -6.8 °C 30.06in /  1017.8hPa South 0.8mph /  1.3km/h 1.2mph /  1.9km/h 87% 0.00in /  0mm 0.0 W/m2
01:30 23.2 °F /  -4.9 °C 20.2 °F /  -6.6 °C 30.05in /  1017.5hPa SSW 3.6mph /  5.8km/h 6.9mph /  11.1km/h 88% 0.00in /  0mm 0.0 W/m2
01:35 23.6 °F /  -4.7 °C 20.6 °F /  -6.3 °C 30.05in /  1017.5hPa SSW 3.3mph /  5.3km/h 4.6mph /  7.4km/h 88% 0.00in /  0mm 0.0 W/m2
01:40 24.0 °F /  -4.4 °C 21.0 °F /  -6.1 °C 30.05in /  1017.5hPa SSW 0.8mph /  1.3km/h 3.5mph /  5.6km/h 88% 0.00in /  0mm 0.0 W/m2
01:45 24.2 °F /  -4.3 °C 21.2 °F /  -6 °C 30.05in /  1017.5hPa SSW 2.4mph /  3.9km/h 2.4mph /  3.9km/h 88% 0.00in /  0mm 0.0 W/m2
01:50 24.2 °F /  -4.3 °C 21.2 °F /  -6 °C 30.05in /  1017.5hPa SSW 0.8mph /  1.3km/h 2.4mph /  3.9km/h 88% 0.00in /  0mm 0.0 W/m2
01:55 24.2 °F /  -4.3 °C 21.2 °F /  -6 °C 30.05in /  1017.5hPa SSW 0.2mph /  0.3km/h 1.2mph /  1.9km/h 88% 0.00in /  0mm 0.0 W/m2
02:00 23.9 °F /  -4.5 °C 20.6 °F /  -6.3 °C 30.05in /  1017.5hPa SSW 1.4mph /  2.3km/h 2.4mph /  3.9km/h 87% 0.00in /  0mm 0.0 W/m2
02:05 23.8 °F /  -4.6 °C 20.5 °F /  -6.4 °C 30.05in /  1017.5hPa SSW 2.3mph /  3.7km/h 2.4mph /  3.9km/h 87% 0.00in /  0mm 0.0 W/m2
02:10 24.2 °F /  -4.3 °C 21.2 °F /  -6 °C 30.05in /  1017.5hPa West 3.3mph /  5.3km/h 4.6mph /  7.4km/h 88% 0.00in /  0mm 0.0 W/m2
02:15 24.4 °F /  -4.2 °C 21.4 °F /  -5.9 °C 30.04in /  1017.2hPa North 1.3mph /  2.1km/h 4.6mph /  7.4km/h 88% 0.00in /  0mm 0.0 W/m2
02:20 24.9 °F /  -3.9 °C 21.8 °F /  -5.7 °C 30.04in /  1017.2hPa SW 7.2mph /  11.6km/h 7.2mph /  11.6km/h 88% 0.00in /  0mm 0.0 W/m2
02:26 26.6 °F /  -3 °C 23.3 °F /  -4.8 °C 30.04in /  1017.2hPa SSW 9.2mph /  14.8km/h 9.2mph /  14.8km/h 87% 0.00in /  0mm 0.0 W/m2
02:31 27.6 °F /  -2.4 °C 23.7 °F /  -4.6 °C 30.03in /  1016.8hPa SW 9.4mph /  15.1km/h 9.4mph /  15.1km/h 85% 0.00in /  0mm 0.0 W/m2
02:36 27.7 °F /  -2.4 °C 23.5 °F /  -4.7 °C 30.03in /  1016.8hPa SW 10.8mph /  17.4km/h 12.0mph /  19.3km/h 84% 0.00in /  0mm 0.0 W/m2
02:41 27.5 °F /  -2.5 °C 23.3 °F /  -4.8 °C 30.02in /  1016.5hPa SSW 8.1mph /  13km/h 8.1mph /  13km/h 84% 0.00in /  0mm 0.0 W/m2
02:46 27.3 °F /  -2.6 °C 23.1 °F /  -4.9 °C 30.02in /  1016.5hPa SSW 8.2mph /  13.2km/h 10.4mph /  16.7km/h 84% 0.00in /  0mm 0.0 W/m2
02:51 27.5 °F /  -2.5 °C 23.3 °F /  -4.8 °C 30.02in /  1016.5hPa SSW 8.7mph /  14km/h 9.2mph /  14.8km/h 84% 0.00in /  0mm 0.0 W/m2
02:56 27.8 °F /  -2.3 °C 23.6 °F /  -4.7 °C 30.01in /  1016.1hPa SSW 10.2mph /  16.4km/h 11.5mph /  18.5km/h 84% 0.00in /  0mm 0.0 W/m2
03:01 27.5 °F /  -2.5 °C 23.0 °F /  -5 °C 30.01in /  1016.1hPa SSW 9.2mph /  14.8km/h 9.6mph /  15.4km/h 83% 0.00in /  0mm 0.0 W/m2
03:06 27.6 °F /  -2.4 °C 23.1 °F /  -4.9 °C 30.01in /  1016.1hPa SW 9.9mph /  15.9km/h 10.4mph /  16.7km/h 83% 0.00in /  0mm 0.0 W/m2
03:11 27.6 °F /  -2.4 °C 23.1 °F /  -4.9 °C 30.01in /  1016.1hPa SSW 10.5mph /  16.9km/h 10.5mph /  16.9km/h 83% 0.00in /  0mm 0.0 W/m2
03:16 27.6 °F /  -2.4 °C 23.1 °F /  -4.9 °C 30.00in /  1015.8hPa SSW 5.4mph /  8.7km/h 8.1mph /  13km/h 83% 0.00in /  0mm 0.0 W/m2
03:21 27.5 °F /  -2.5 °C 23.0 °F /  -5 °C 30.01in /  1016.1hPa SSW 4.2mph /  6.8km/h 4.6mph /  7.4km/h 83% 0.00in /  0mm 0.0 W/m2
03:26 27.3 °F /  -2.6 °C 22.8 °F /  -5.1 °C 30.01in /  1016.1hPa SSW 3.8mph /  6.1km/h 4.8mph /  7.7km/h 83% 0.00in /  0mm 0.0 W/m2
03:32 27.3 °F /  -2.6 °C 22.8 °F /  -5.1 °C 30.00in /  1015.8hPa SSW 7.0mph /  11.3km/h 8.0mph /  12.9km/h 83% 0.00in /  0mm 0.0 W/m2
03:37 27.3 °F /  -2.6 °C 22.8 °F /  -5.1 °C 30.00in /  1015.8hPa SSW 6.0mph /  9.7km/h 7.0mph /  11.3km/h 83% 0.00in /  0mm 0.0 W/m2
03:42 27.2 °F /  -2.7 °C 22.7 °F /  -5.2 °C 30.00in /  1015.8hPa SW 3.6mph /  5.8km/h 5.8mph /  9.3km/h 83% 0.00in /  0mm 0.0 W/m2
03:47 27.4 °F /  -2.6 °C 22.9 °F /  -5.1 °C 30.00in /  1015.8hPa SSW 6.6mph /  10.6km/h 6.9mph /  11.1km/h 83% 0.00in /  0mm 0.0 W/m2
03:52 27.4 °F /  -2.6 °C 22.9 °F /  -5.1 °C 30.00in /  1015.8hPa SSW 7.2mph /  11.6km/h 7.2mph /  11.6km/h 83% 0.00in /  0mm 0.0 W/m2
03:57 27.3 °F /  -2.6 °C 22.8 °F /  -5.1 °C 30.00in /  1015.8hPa SSW 5.3mph /  8.5km/h 5.8mph /  9.3km/h 83% 0.00in /  0mm 0.0 W/m2
04:02 27.3 °F /  -2.6 °C 22.8 °F /  -5.1 °C 30.00in /  1015.8hPa SSW 6.4mph /  10.3km/h 8.1mph /  13km/h 83% 0.00in /  0mm 0.0 W/m2
04:07 27.2 °F /  -2.7 °C 22.7 °F /  -5.2 °C 30.00in /  1015.8hPa SSW 5.9mph /  9.5km/h 8.1mph /  13km/h 83% 0.00in /  0mm 0.0 W/m2
04:12 27.2 °F /  -2.7 °C 22.7 °F /  -5.2 °C 30.00in /  1015.8hPa SSW 6.3mph /  10.1km/h 7.2mph /  11.6km/h 83% 0.00in /  0mm 0.0 W/m2
04:17 27.1 °F /  -2.7 °C 22.6 °F /  -5.2 °C 30.00in /  1015.8hPa South 4.4mph /  7.1km/h 8.1mph /  13km/h 83% 0.00in /  0mm 0.0 W/m2
04:22 26.9 °F /  -2.8 °C 22.7 °F /  -5.2 °C 30.00in /  1015.8hPa SSW 4.0mph /  6.4km/h 4.8mph /  7.7km/h 84% 0.00in /  0mm 0.0 W/m2
04:27 26.7 °F /  -2.9 °C 22.5 °F /  -5.3 °C 30.00in /  1015.8hPa SSW 0.7mph /  1.1km/h 2.3mph /  3.7km/h 84% 0.00in /  0mm 0.0 W/m2
04:32 26.4 °F /  -3.1 °C 22.2 °F /  -5.4 °C 30.00in /  1015.8hPa SSW 1.9mph /  3.1km/h 2.4mph /  3.9km/h 84% 0.00in /  0mm 0.0 W/m2
04:37 26.2 °F /  -3.2 °C 22.0 °F /  -5.6 °C 30.00in /  1015.8hPa SSW 1.6mph /  2.6km/h 2.4mph /  3.9km/h 84% 0.00in /  0mm 0.0 W/m2
04:42 26.0 °F /  -3.3 °C 21.8 °F /  -5.7 °C 30.00in /  1015.8hPa SE 1.6mph /  2.6km/h 2.4mph /  3.9km/h 84% 0.00in /  0mm 0.0 W/m2
04:47 25.8 °F /  -3.4 °C 21.9 °F /  -5.6 °C 30.00in /  1015.8hPa South 2.1mph /  3.4km/h 2.4mph /  3.9km/h 85% 0.00in /  0mm 0.0 W/m2
04:53 25.6 °F /  -3.6 °C 21.7 °F /  -5.7 °C 30.00in /  1015.8hPa Calm   1.2mph /  1.9km/h 85% 0.00in /  0mm 0.0 W/m2
04:58 25.7 °F /  -3.5 °C 21.8 °F /  -5.7 °C 30.00in /  1015.8hPa SSE 0.1mph /  0.2km/h 1.2mph /  1.9km/h 85% 0.00in /  0mm 0.0 W/m2
05:03 25.4 °F /  -3.7 °C 21.5 °F /  -5.8 °C 30.00in /  1015.8hPa SSE 1.1mph /  1.8km/h 1.2mph /  1.9km/h 85% 0.00in /  0mm 0.0 W/m2
05:08 25.2 °F /  -3.8 °C 21.3 °F /  -5.9 °C 30.00in /  1015.8hPa South 1.6mph /  2.6km/h 2.3mph /  3.7km/h 85% 0.00in /  0mm 0.0 W/m2
05:13 24.6 °F /  -4.1 °C 21.0 °F /  -6.1 °C 29.99in /  1015.5hPa SSE 2.8mph /  4.5km/h 4.6mph /  7.4km/h 86% 0.00in /  0mm 0.0 W/m2
05:18 23.9 °F /  -4.5 °C 20.3 °F /  -6.5 °C 29.99in /  1015.5hPa ENE 4.2mph /  6.8km/h 4.8mph /  7.7km/h 86% 0.00in /  0mm 0.0 W/m2
05:23 23.7 °F /  -4.6 °C 20.4 °F /  -6.4 °C 29.99in /  1015.5hPa ENE 1.7mph /  2.7km/h 2.4mph /  3.9km/h 87% 0.00in /  0mm 0.0 W/m2
05:28 23.5 °F /  -4.7 °C 20.2 °F /  -6.6 °C 29.99in /  1015.5hPa ENE 1.6mph /  2.6km/h 2.3mph /  3.7km/h 87% 0.00in /  0mm 0.0 W/m2
05:33 23.1 °F /  -4.9 °C 19.8 °F /  -6.8 °C 29.99in /  1015.5hPa ENE 2.4mph /  3.9km/h 2.4mph /  3.9km/h 87% 0.00in /  0mm 0.0 W/m2
05:38 22.8 °F /  -5.1 °C 19.8 °F /  -6.8 °C 29.98in /  1015.1hPa NE 1.5mph /  2.4km/h 2.3mph /  3.7km/h 88% 0.00in /  0mm 0.0 W/m2
05:43 22.8 °F /  -5.1 °C 19.8 °F /  -6.8 °C 29.99in /  1015.5hPa NE 0.2mph /  0.3km/h 1.2mph /  1.9km/h 88% 0.00in /  0mm 0.0 W/m2
05:48 22.9 °F /  -5.1 °C 20.1 °F /  -6.6 °C 29.98in /  1015.1hPa Calm   1.2mph /  1.9km/h 89% 0.00in /  0mm 0.0 W/m2
05:53 22.9 °F /  -5.1 °C 20.4 °F /  -6.4 °C 29.98in /  1015.1hPa NE 1.2mph /  1.9km/h 2.4mph /  3.9km/h 90% 0.00in /  0mm 0.0 W/m2
05:58 23.0 °F /  -5 °C 20.5 °F /  -6.4 °C 29.98in /  1015.1hPa Calm   1.2mph /  1.9km/h 90% 0.00in /  0mm 0.0 W/m2
06:03 23.2 °F /  -4.9 °C 20.7 °F /  -6.3 °C 29.98in /  1015.1hPa East 1.6mph /  2.6km/h 2.3mph /  3.7km/h 90% 0.00in /  0mm 0.0 W/m2
06:09 23.1 °F /  -4.9 °C 20.6 °F /  -6.3 °C 29.98in /  1015.1hPa East 1.4mph /  2.3km/h 1.4mph /  2.3km/h 90% 0.00in /  0mm 0.0 W/m2
06:14 23.0 °F /  -5 °C 20.5 °F /  -6.4 °C 29.98in /  1015.1hPa East 0.5mph /  0.8km/h 1.2mph /  1.9km/h 90% 0.00in /  0mm 0.0 W/m2
06:19 23.2 °F /  -4.9 °C 20.7 °F /  -6.3 °C 29.98in /  1015.1hPa SSE 1.6mph /  2.6km/h 2.4mph /  3.9km/h 90% 0.00in /  0mm 0.0 W/m2
06:24 23.5 °F /  -4.7 °C 21.0 °F /  -6.1 °C 29.98in /  1015.1hPa SSE 2.9mph /  4.7km/h 4.8mph /  7.7km/h 90% 0.00in /  0mm 0.0 W/m2
06:29 23.9 °F /  -4.5 °C 21.1 °F /  -6.1 °C 29.98in /  1015.1hPa South 3.1mph /  5km/h 4.8mph /  7.7km/h 89% 0.00in /  0mm 0.0 W/m2
06:34 24.1 °F /  -4.4 °C 21.3 °F /  -5.9 °C 29.98in /  1015.1hPa SSE 4.1mph /  6.6km/h 5.8mph /  9.3km/h 89% 0.00in /  0mm 0.0 W/m2
06:39 24.1 °F /  -4.4 °C 21.3 °F /  -5.9 °C 29.98in /  1015.1hPa South 3.3mph /  5.3km/h 6.0mph /  9.7km/h 89% 0.00in /  0mm 0.0 W/m2
06:44 24.2 °F /  -4.3 °C 21.4 °F /  -5.9 °C 29.98in /  1015.1hPa South 3.3mph /  5.3km/h 5.8mph /  9.3km/h 89% 0.00in /  0mm 0.0 W/m2
06:49 24.9 °F /  -3.9 °C 21.8 °F /  -5.7 °C 29.98in /  1015.1hPa South 3.2mph /  5.1km/h 4.6mph /  7.4km/h 88% 0.00in /  0mm 0.0 W/m2
06:54 24.9 °F /  -3.9 °C 21.8 °F /  -5.7 °C 29.98in /  1015.1hPa South 2.0mph /  3.2km/h 4.6mph /  7.4km/h 88% 0.00in /  0mm 0.0 W/m2
06:59 24.7 °F /  -4.1 °C 21.7 °F /  -5.7 °C 29.98in /  1015.1hPa South 2.6mph /  4.2km/h 2.6mph /  4.2km/h 88% 0.00in /  0mm 0.0 W/m2
07:04 24.8 °F /  -4 °C 21.8 °F /  -5.7 °C 29.97in /  1014.8hPa SSW 5.0mph /  8km/h 6.9mph /  11.1km/h 88% 0.00in /  0mm 5.0 W/m2
07:09 24.7 °F /  -4.1 °C 21.7 °F /  -5.7 °C 29.97in /  1014.8hPa SSW 4.4mph /  7.1km/h 4.8mph /  7.7km/h 88% 0.00in /  0mm 9.0 W/m2
07:14 24.9 °F /  -3.9 °C 21.8 °F /  -5.7 °C 29.97in /  1014.8hPa SSW 5.0mph /  8km/h 6.9mph /  11.1km/h 88% 0.00in /  0mm 11.0 W/m2
07:19 24.8 °F /  -4 °C 21.8 °F /  -5.7 °C 29.98in /  1015.1hPa SSW 2.9mph /  4.7km/h 4.6mph /  7.4km/h 88% 0.00in /  0mm 14.0 W/m2
07:24 24.9 °F /  -3.9 °C 21.8 °F /  -5.7 °C 29.98in /  1015.1hPa SSW 3.7mph /  6km/h 4.8mph /  7.7km/h 88% 0.00in /  0mm 18.0 W/m2
07:29 25.0 °F /  -3.9 °C 21.9 °F /  -5.6 °C 29.98in /  1015.1hPa South 2.0mph /  3.2km/h 2.4mph /  3.9km/h 88% 0.00in /  0mm 19.0 W/m2
07:34 25.1 °F /  -3.8 °C 22.0 °F /  -5.6 °C 29.98in /  1015.1hPa South 2.8mph /  4.5km/h 2.8mph /  4.5km/h 88% 0.00in /  0mm 25.0 W/m2
07:39 25.1 °F /  -3.8 °C 22.0 °F /  -5.6 °C 29.98in /  1015.1hPa South 1.3mph /  2.1km/h 2.3mph /  3.7km/h 88% 0.00in /  0mm 26.0 W/m2
07:44 25.1 °F /  -3.8 °C 22.0 °F /  -5.6 °C 29.98in /  1015.1hPa South 2.4mph /  3.9km/h 4.6mph /  7.4km/h 88% 0.00in /  0mm 32.0 W/m2
07:49 25.3 °F /  -3.7 °C 22.2 °F /  -5.4 °C 29.98in /  1015.1hPa South 4.3mph /  6.9km/h 6.9mph /  11.1km/h 88% 0.00in /  0mm 47.0 W/m2
07:54 25.5 °F /  -3.6 °C 22.4 °F /  -5.3 °C 29.98in /  1015.1hPa South 6.2mph /  10km/h 6.2mph /  10km/h 88% 0.00in /  0mm 54.0 W/m2
08:00 26.3 °F /  -3.2 °C 23.0 °F /  -5 °C 29.97in /  1014.8hPa South 6.8mph /  10.9km/h 9.2mph /  14.8km/h 87% 0.00in /  0mm 67.0 W/m2
08:05 26.7 °F /  -2.9 °C 23.4 °F /  -4.8 °C 29.97in /  1014.8hPa South 5.8mph /  9.3km/h 8.1mph /  13km/h 87% 0.00in /  0mm 104.0 W/m2
08:10 27.0 °F /  -2.8 °C 23.6 °F /  -4.7 °C 29.97in /  1014.8hPa SSW 7.9mph /  12.7km/h 10.4mph /  16.7km/h 87% 0.00in /  0mm 111.0 W/m2
08:15 27.3 °F /  -2.6 °C 23.7 °F /  -4.6 °C 29.97in /  1014.8hPa South 8.7mph /  14km/h 9.2mph /  14.8km/h 86% 0.00in /  0mm 90.0 W/m2
08:20 27.7 °F /  -2.4 °C 24.1 °F /  -4.4 °C 29.97in /  1014.8hPa SSW 10.3mph /  16.6km/h 10.4mph /  16.7km/h 86% 0.00in /  0mm 121.0 W/m2
08:25 28.0 °F /  -2.2 °C 24.1 °F /  -4.4 °C 29.97in /  1014.8hPa SSW 11.0mph /  17.7km/h 12.7mph /  20.4km/h 85% 0.00in /  0mm 134.0 W/m2
08:30 28.2 °F /  -2.1 °C 24.3 °F /  -4.3 °C 29.97in /  1014.8hPa South 4.1mph /  6.6km/h 5.8mph /  9.3km/h 85% 0.00in /  0mm 190.0 W/m2
08:35 28.5 °F /  -1.9 °C 24.6 °F /  -4.1 °C 29.97in /  1014.8hPa South 5.3mph /  8.5km/h 9.2mph /  14.8km/h 85% 0.00in /  0mm 199.0 W/m2
08:40 28.9 °F /  -1.7 °C 25.0 °F /  -3.9 °C 29.97in /  1014.8hPa SSW 6.4mph /  10.3km/h 6.9mph /  11.1km/h 85% 0.00in /  0mm 241.0 W/m2
08:45 29.3 °F /  -1.5 °C 25.1 °F /  -3.8 °C 29.97in /  1014.8hPa SSW 8.0mph /  12.9km/h 10.4mph /  16.7km/h 84% 0.00in /  0mm 239.0 W/m2
08:50 29.6 °F /  -1.3 °C 25.4 °F /  -3.7 °C 29.98in /  1015.1hPa SSW 5.8mph /  9.3km/h 5.8mph /  9.3km/h 84% 0.00in /  0mm 267.0 W/m2
08:55 30.4 °F /  -0.9 °C 25.9 °F /  -3.4 °C 29.97in /  1014.8hPa SSW 4.7mph /  7.6km/h 10.4mph /  16.7km/h 83% 0.00in /  0mm 283.0 W/m2
09:01 30.8 °F /  -0.7 °C 26.2 °F /  -3.2 °C 29.97in /  1014.8hPa SSW 9.9mph /  15.9km/h 11.5mph /  18.5km/h 83% 0.00in /  0mm 299.0 W/m2
09:06 31.3 °F /  -0.4 °C 26.4 °F /  -3.1 °C 29.97in /  1014.8hPa SSW 4.7mph /  7.6km/h 10.8mph /  17.4km/h 82% 0.00in /  0mm 313.0 W/m2
09:11 31.7 °F /  -0.2 °C 26.8 °F /  -2.9 °C 29.97in /  1014.8hPa SSW 6.5mph /  10.5km/h 12.7mph /  20.4km/h 82% 0.00in /  0mm 327.0 W/m2
09:16 31.9 °F /  -0.1 °C 26.7 °F /  -2.9 °C 29.97in /  1014.8hPa SSW 7.2mph /  11.6km/h 9.2mph /  14.8km/h 81% 0.00in /  0mm 341.0 W/m2
09:21 32.1 °F /  0.1 °C 26.9 °F /  -2.8 °C 29.97in /  1014.8hPa South 9.7mph /  15.6km/h 15.0mph /  24.1km/h 81% 0.00in /  0mm 357.0 W/m2
09:26 32.5 °F /  0.3 °C 27.3 °F /  -2.6 °C 29.97in /  1014.8hPa SSW 10.7mph /  17.2km/h 12.7mph /  20.4km/h 81% 0.00in /  0mm 367.0 W/m2
09:31 32.9 °F /  0.5 °C 27.7 °F /  -2.4 °C 29.97in /  1014.8hPa South 6.3mph /  10.1km/h 9.2mph /  14.8km/h 81% 0.00in /  0mm 381.0 W/m2
09:36 33.2 °F /  0.7 °C 27.7 °F /  -2.4 °C 29.96in /  1014.4hPa SSW 5.4mph /  8.7km/h 11.5mph /  18.5km/h 80% 0.00in /  0mm 394.0 W/m2
09:41 33.6 °F /  0.9 °C 28.1 °F /  -2.2 °C 29.96in /  1014.4hPa SSW 6.4mph /  10.3km/h 7.2mph /  11.6km/h 80% 0.00in /  0mm 404.0 W/m2
09:46 33.8 °F /  1 °C 28.3 °F /  -2.1 °C 29.96in /  1014.4hPa South 7.4mph /  11.9km/h 9.6mph /  15.4km/h 80% 0.00in /  0mm 415.0 W/m2
09:51 33.8 °F /  1 °C 28.3 °F /  -2.1 °C 29.96in /  1014.4hPa South 9.2mph /  14.8km/h 11.5mph /  18.5km/h 80% 0.00in /  0mm 427.0 W/m2
09:56 33.7 °F /  0.9 °C 27.9 °F /  -2.3 °C 29.96in /  1014.4hPa South 9.4mph /  15.1km/h 11.5mph /  18.5km/h 79% 0.00in /  0mm 439.0 W/m2
10:02 34.4 °F /  1.3 °C 28.6 °F /  -1.9 °C 29.95in /  1014.1hPa SSW 8.9mph /  14.3km/h 11.5mph /  18.5km/h 79% 0.00in /  0mm 450.0 W/m2
10:07 34.3 °F /  1.3 °C 28.2 °F /  -2.1 °C 29.95in /  1014.1hPa South 15.0mph /  24.1km/h 15.0mph /  24.1km/h 78% 0.00in /  0mm 461.0 W/m2
10:12 34.8 °F /  1.6 °C 29.0 °F /  -1.7 °C 29.95in /  1014.1hPa SSW 9.0mph /  14.5km/h 12.7mph /  20.4km/h 79% 0.00in /  0mm 469.0 W/m2
10:17 35.0 °F /  1.7 °C 28.8 °F /  -1.8 °C 29.95in /  1014.1hPa SSW 12.0mph /  19.3km/h 16.0mph /  25.7km/h 78% 0.00in /  0mm 480.0 W/m2
10:22 35.2 °F /  1.8 °C 29.0 °F /  -1.7 °C 29.94in /  1013.8hPa South 14.0mph /  22.5km/h 20.0mph /  32.2km/h 78% 0.00in /  0mm 489.0 W/m2
10:27 35.4 °F /  1.9 °C 28.9 °F /  -1.7 °C 29.94in /  1013.8hPa South 9.0mph /  14.5km/h 17.0mph /  27.4km/h 77% 0.00in /  0mm 499.0 W/m2
10:32 36.2 °F /  2.3 °C 30.0 °F /  -1.1 °C 29.93in /  1013.4hPa SSW 6.0mph /  9.7km/h 8.0mph /  12.9km/h 78% 0.00in /  0mm 508.0 W/m2
10:37 36.4 °F /  2.4 °C 29.9 °F /  -1.2 °C 29.94in /  1013.8hPa South 7.9mph /  12.7km/h 10.8mph /  17.4km/h 77% 0.00in /  0mm 513.0 W/m2
10:42 36.7 °F /  2.6 °C 29.8 °F /  -1.2 °C 29.94in /  1013.8hPa South 8.0mph /  12.9km/h 15.0mph /  24.1km/h 76% 0.00in /  0mm 522.0 W/m2
10:47 37.0 °F /  2.8 °C 30.1 °F /  -1.1 °C 29.93in /  1013.4hPa South 9.0mph /  14.5km/h 13.0mph /  20.9km/h 76% 0.00in /  0mm 533.0 W/m2
10:52 37.3 °F /  2.9 °C 30.4 °F /  -0.9 °C 29.92in /  1013.1hPa South 7.0mph /  11.3km/h 15.0mph /  24.1km/h 76% 0.00in /  0mm 538.0 W/m2
10:57 37.4 °F /  3 °C 30.2 °F /  -1 °C 29.92in /  1013.1hPa South 10.0mph /  16.1km/h 13.0mph /  20.9km/h 75% 0.00in /  0mm 547.0 W/m2
11:02 37.9 °F /  3.3 °C 30.7 °F /  -0.7 °C 29.92in /  1013.1hPa SSW 10.1mph /  16.3km/h 13.2mph /  21.2km/h 75% 0.00in /  0mm 554.0 W/m2
11:07 38.4 °F /  3.6 °C 30.8 °F /  -0.7 °C 29.91in /  1012.8hPa SSW 12.2mph /  19.6km/h 16.8mph /  27km/h 74% 0.00in /  0mm 559.0 W/m2
11:12 38.8 °F /  3.8 °C 30.9 °F /  -0.6 °C 29.91in /  1012.8hPa SSW 10.6mph /  17.1km/h 10.8mph /  17.4km/h 73% 0.00in /  0mm 564.0 W/m2
11:17 39.1 °F /  3.9 °C 31.2 °F /  -0.4 °C 29.91in /  1012.8hPa SSW 14.7mph /  23.7km/h 17.3mph /  27.8km/h 73% 0.00in /  0mm 570.0 W/m2
11:22 39.3 °F /  4.1 °C 31.4 °F /  -0.3 °C 29.90in /  1012.4hPa South 12.6mph /  20.3km/h 16.1mph /  25.9km/h 73% 0.00in /  0mm 575.0 W/m2
11:27 39.9 °F /  4.4 °C 31.6 °F /  -0.2 °C 29.90in /  1012.4hPa South 10.4mph /  16.7km/h 15.0mph /  24.1km/h 72% 0.00in /  0mm 578.0 W/m2
11:32 40.2 °F /  4.6 °C 31.9 °F /  -0.1 °C 29.89in /  1012.1hPa South 8.6mph /  13.8km/h 10.4mph /  16.7km/h 72% 0.00in /  0mm 582.0 W/m2
11:37 40.7 °F /  4.8 °C 32.0 °F /  0 °C 29.89in /  1012.1hPa South 7.8mph /  12.6km/h 9.6mph /  15.4km/h 71% 0.00in /  0mm 587.0 W/m2
11:42 41.1 °F /  5.1 °C 32.4 °F /  0.2 °C 29.88in /  1011.7hPa SSE 7.8mph /  12.6km/h 10.4mph /  16.7km/h 71% 0.00in /  0mm 592.0 W/m2
11:48 41.3 °F /  5.2 °C 32.2 °F /  0.1 °C 29.88in /  1011.7hPa SSW 10.4mph /  16.7km/h 10.4mph /  16.7km/h 70% 0.00in /  0mm 596.0 W/m2
11:53 41.5 °F /  5.3 °C 32.1 °F /  0.1 °C 29.88in /  1011.7hPa South 10.5mph /  16.9km/h 11.5mph /  18.5km/h 69% 0.00in /  0mm 598.0 W/m2
11:58 42.0 °F /  5.6 °C 32.6 °F /  0.3 °C 29.87in /  1011.4hPa South 6.6mph /  10.6km/h 9.2mph /  14.8km/h 69% 0.00in /  0mm 599.0 W/m2
12:03 42.2 °F /  5.7 °C 32.4 °F /  0.2 °C 29.87in /  1011.4hPa SSW 14.8mph /  23.8km/h 16.1mph /  25.9km/h 68% 0.00in /  0mm 601.0 W/m2
12:08 42.7 °F /  5.9 °C 32.9 °F /  0.5 °C 29.87in /  1011.4hPa SSW 7.1mph /  11.4km/h 8.1mph /  13km/h 68% 0.00in /  0mm 605.0 W/m2
12:13 43.7 °F /  6.5 °C 33.1 °F /  0.6 °C 29.86in /  1011.1hPa South 6.6mph /  10.6km/h 8.1mph /  13km/h 66% 0.00in /  0mm 605.0 W/m2
12:18 43.5 °F /  6.4 °C 32.9 °F /  0.5 °C 29.86in /  1011.1hPa SW 7.2mph /  11.6km/h 12.0mph /  19.3km/h 66% 0.00in /  0mm 603.0 W/m2
12:23 43.6 °F /  6.4 °C 32.6 °F /  0.3 °C 29.86in /  1011.1hPa SSW 8.6mph /  13.8km/h 10.4mph /  16.7km/h 65% 0.00in /  0mm 603.0 W/m2
12:28 43.7 °F /  6.5 °C 32.7 °F /  0.4 °C 29.85in /  1010.7hPa SW 10.4mph /  16.7km/h 11.5mph /  18.5km/h 65% 0.00in /  0mm 599.0 W/m2
12:33 44.0 °F /  6.7 °C 33.0 °F /  0.6 °C 29.85in /  1010.7hPa South 3.8mph /  6.1km/h 6.9mph /  11.1km/h 65% 0.00in /  0mm 599.0 W/m2
12:38 44.4 °F /  6.9 °C 33.4 °F /  0.8 °C 29.84in /  1010.4hPa SSW 7.9mph /  12.7km/h 9.2mph /  14.8km/h 65% 0.00in /  0mm 598.0 W/m2
12:44 44.6 °F /  7 °C 33.2 °F /  0.7 °C 29.84in /  1010.4hPa South 10.4mph /  16.7km/h 10.4mph /  16.7km/h 64% 0.00in /  0mm 596.0 W/m2
12:49 44.2 °F /  6.8 °C 32.8 °F /  0.4 °C 29.84in /  1010.4hPa South 8.2mph /  13.2km/h 12.7mph /  20.4km/h 64% 0.00in /  0mm 592.0 W/m2
12:54 44.7 °F /  7.1 °C 33.3 °F /  0.7 °C 29.84in /  1010.4hPa South 11.5mph /  18.5km/h 11.5mph /  18.5km/h 64% 0.00in /  0mm 589.0 W/m2
12:59 45.2 °F /  7.3 °C 33.3 °F /  0.7 °C 29.84in /  1010.4hPa South 10.6mph /  17.1km/h 10.6mph /  17.1km/h 63% 0.00in /  0mm 585.0 W/m2
13:04 45.5 °F /  7.5 °C 33.6 °F /  0.9 °C 29.83in /  1010hPa South 8.6mph /  13.8km/h 11.5mph /  18.5km/h 63% 0.00in /  0mm 582.0 W/m2
13:09 45.5 °F /  7.5 °C 33.6 °F /  0.9 °C 29.83in /  1010hPa SSW 8.8mph /  14.2km/h 11.5mph /  18.5km/h 63% 0.00in /  0mm 578.0 W/m2
13:14 45.7 °F /  7.6 °C 33.4 °F /  0.8 °C 29.83in /  1010hPa SSW 11.5mph /  18.5km/h 14.4mph /  23.2km/h 62% 0.00in /  0mm 573.0 W/m2
13:19 45.6 °F /  7.6 °C 33.3 °F /  0.7 °C 29.82in /  1009.7hPa SW 14.3mph /  23km/h 17.3mph /  27.8km/h 62% 0.00in /  0mm 568.0 W/m2
13:24 45.8 °F /  7.7 °C 33.5 °F /  0.8 °C 29.82in /  1009.7hPa SSW 11.9mph /  19.2km/h 12.7mph /  20.4km/h 62% 0.00in /  0mm 564.0 W/m2
13:29 46.1 °F /  7.8 °C 33.8 °F /  1 °C 29.82in /  1009.7hPa SSW 12.5mph /  20.1km/h 13.2mph /  21.2km/h 62% 0.00in /  0mm 557.0 W/m2
13:34 46.4 °F /  8 °C 34.1 °F /  1.2 °C 29.81in /  1009.4hPa SSW 15.2mph /  24.5km/h 15.2mph /  24.5km/h 62% 0.00in /  0mm 552.0 W/m2
13:39 46.4 °F /  8 °C 34.5 °F /  1.4 °C 29.81in /  1009.4hPa South 7.8mph /  12.6km/h 10.8mph /  17.4km/h 63% 0.00in /  0mm 545.0 W/m2
13:44 46.5 °F /  8.1 °C 34.2 °F /  1.2 °C 29.81in /  1009.4hPa South 7.5mph /  12.1km/h 8.4mph /  13.5km/h 62% 0.00in /  0mm 538.0 W/m2
13:49 46.8 °F /  8.2 °C 34.5 °F /  1.4 °C 29.80in /  1009hPa SSW 8.2mph /  13.2km/h 12.0mph /  19.3km/h 62% 0.00in /  0mm 531.0 W/m2
13:54 46.7 °F /  8.2 °C 34.8 °F /  1.6 °C 29.80in /  1009hPa South 10.2mph /  16.4km/h 12.7mph /  20.4km/h 63% 0.00in /  0mm 524.0 W/m2
13:59 46.7 °F /  8.2 °C 34.8 °F /  1.6 °C 29.80in /  1009hPa SW 10.7mph /  17.2km/h 16.1mph /  25.9km/h 63% 0.00in /  0mm 515.0 W/m2
14:05 46.7 °F /  8.2 °C 34.8 °F /  1.6 °C 29.79in /  1008.7hPa SSW 9.2mph /  14.8km/h 18.4mph /  29.6km/h 63% 0.00in /  0mm 508.0 W/m2
14:10 47.1 °F /  8.4 °C 34.7 °F /  1.5 °C 29.79in /  1008.7hPa SSW 10.6mph /  17.1km/h 12.0mph /  19.3km/h 62% 0.00in /  0mm 499.0 W/m2
14:15 47.2 °F /  8.4 °C 35.2 °F /  1.8 °C 29.79in /  1008.7hPa SW 7.3mph /  11.7km/h 9.6mph /  15.4km/h 63% 0.00in /  0mm 489.0 W/m2
14:20 47.2 °F /  8.4 °C 35.2 °F /  1.8 °C 29.79in /  1008.7hPa SW 7.7mph /  12.4km/h 9.2mph /  14.8km/h 63% 0.00in /  0mm 478.0 W/m2
14:25 47.3 °F /  8.5 °C 35.3 °F /  1.8 °C 29.78in /  1008.4hPa SSW 6.5mph /  10.5km/h 9.6mph /  15.4km/h 63% 0.00in /  0mm 469.0 W/m2
14:30 47.2 °F /  8.4 °C 35.2 °F /  1.8 °C 29.78in /  1008.4hPa SSW 11.2mph /  18km/h 12.0mph /  19.3km/h 63% 0.00in /  0mm 459.0 W/m2
14:35 47.2 °F /  8.4 °C 35.2 °F /  1.8 °C 29.78in /  1008.4hPa SSW 8.3mph /  13.4km/h 11.5mph /  18.5km/h 63% 0.00in /  0mm 448.0 W/m2
14:40 47.2 °F /  8.4 °C 35.6 °F /  2 °C 29.78in /  1008.4hPa SW 8.2mph /  13.2km/h 11.5mph /  18.5km/h 64% 0.00in /  0mm 438.0 W/m2
14:45 47.3 °F /  8.5 °C 35.7 °F /  2.1 °C 29.77in /  1008hPa WSW 8.7mph /  14km/h 11.5mph /  18.5km/h 64% 0.00in /  0mm 425.0 W/m2
14:50 47.2 °F /  8.4 °C 35.6 °F /  2 °C 29.76in /  1007.7hPa South 7.8mph /  12.6km/h 12.7mph /  20.4km/h 64% 0.00in /  0mm 413.0 W/m2
14:55 47.6 °F /  8.7 °C 36.0 °F /  2.2 °C 29.76in /  1007.7hPa SSW 11.4mph /  18.3km/h 16.1mph /  25.9km/h 64% 0.00in /  0mm 403.0 W/m2
15:01 47.7 °F /  8.7 °C 36.1 °F /  2.3 °C 29.76in /  1007.7hPa SSW 12.0mph /  19.3km/h 15.6mph /  25.1km/h 64% 0.00in /  0mm 390.0 W/m2
15:06 47.8 °F /  8.8 °C 36.2 °F /  2.3 °C 29.76in /  1007.7hPa SSW 9.1mph /  14.6km/h 14.4mph /  23.2km/h 64% 0.00in /  0mm 378.0 W/m2
15:11 47.9 °F /  8.8 °C 36.3 °F /  2.4 °C 29.76in /  1007.7hPa SSW 7.4mph /  11.9km/h 9.2mph /  14.8km/h 64% 0.00in /  0mm 364.0 W/m2
15:16 48.7 °F /  9.3 °C 36.7 °F /  2.6 °C 29.76in /  1007.7hPa South 5.5mph /  8.9km/h 6.9mph /  11.1km/h 63% 0.00in /  0mm 355.0 W/m2
15:21 48.4 °F /  9.1 °C 36.4 °F /  2.4 °C 29.76in /  1007.7hPa South 12.4mph /  20km/h 16.1mph /  25.9km/h 63% 0.00in /  0mm 341.0 W/m2
15:26 48.4 °F /  9.1 °C 36.8 °F /  2.7 °C 29.75in /  1007.3hPa SSW 8.2mph /  13.2km/h 19.6mph /  31.5km/h 64% 0.00in /  0mm 329.0 W/m2
15:31 48.3 °F /  9.1 °C 36.7 °F /  2.6 °C 29.76in /  1007.7hPa South 7.6mph /  12.2km/h 8.1mph /  13km/h 64% 0.00in /  0mm 315.0 W/m2
15:36 48.5 °F /  9.2 °C 36.9 °F /  2.7 °C 29.76in /  1007.7hPa SSW 5.3mph /  8.5km/h 7.2mph /  11.6km/h 64% 0.00in /  0mm 297.0 W/m2
15:41 47.9 °F /  8.8 °C 36.7 °F /  2.6 °C 29.75in /  1007.3hPa South 5.6mph /  9km/h 6.9mph /  11.1km/h 65% 0.00in /  0mm 281.0 W/m2
15:47 47.7 °F /  8.7 °C 36.9 °F /  2.7 °C 29.75in /  1007.3hPa SSW 7.7mph /  12.4km/h 9.6mph /  15.4km/h 66% 0.00in /  0mm 262.0 W/m2
15:52 47.5 °F /  8.6 °C 36.7 °F /  2.6 °C 29.75in /  1007.3hPa SSW 8.0mph /  12.9km/h 16.0mph /  25.7km/h 66% 0.00in /  0mm 244.0 W/m2
15:57 47.5 °F /  8.6 °C 36.7 °F /  2.6 °C 29.75in /  1007.3hPa SSW 2.0mph /  3.2km/h 12.0mph /  19.3km/h 66% 0.00in /  0mm 220.0 W/m2
16:02 47.4 °F /  8.6 °C 36.6 °F /  2.6 °C 29.74in /  1007hPa SSW 6.4mph /  10.3km/h 8.1mph /  13km/h 66% 0.00in /  0mm 155.0 W/m2
16:07 47.0 °F /  8.3 °C 36.2 °F /  2.3 °C 29.74in /  1007hPa SSW 6.2mph /  10km/h 7.2mph /  11.6km/h 66% 0.00in /  0mm 128.0 W/m2
16:12 46.8 °F /  8.2 °C 36.4 °F /  2.4 °C 29.74in /  1007hPa SSW 6.4mph /  10.3km/h 9.6mph /  15.4km/h 67% 0.00in /  0mm 134.0 W/m2
16:17 46.5 °F /  8.1 °C 36.5 °F /  2.5 °C 29.74in /  1007hPa South 5.0mph /  8km/h 6.0mph /  9.7km/h 68% 0.00in /  0mm 98.0 W/m2
16:22 46.4 °F /  8 °C 36.4 °F /  2.4 °C 29.74in /  1007hPa South 10.2mph /  16.4km/h 11.5mph /  18.5km/h 68% 0.00in /  0mm 86.0 W/m2
16:27 46.0 °F /  7.8 °C 36.0 °F /  2.2 °C 29.73in /  1006.7hPa South 9.7mph /  15.6km/h 12.0mph /  19.3km/h 68% 0.00in /  0mm 69.0 W/m2
16:32 45.6 °F /  7.6 °C 36.0 °F /  2.2 °C 29.73in /  1006.7hPa South 7.2mph /  11.6km/h 9.2mph /  14.8km/h 69% 0.00in /  0mm 51.0 W/m2
16:37 45.4 °F /  7.4 °C 35.8 °F /  2.1 °C 29.73in /  1006.7hPa SSW 9.9mph /  15.9km/h 12.7mph /  20.4km/h 69% 0.00in /  0mm 51.0 W/m2
16:42 45.1 °F /  7.3 °C 35.9 °F /  2.2 °C 29.73in /  1006.7hPa SSW 9.7mph /  15.6km/h 11.5mph /  18.5km/h 70% 0.00in /  0mm 47.0 W/m2
16:47 44.7 °F /  7.1 °C 35.5 °F /  1.9 °C 29.72in /  1006.3hPa SSE 6.2mph /  10km/h 8.1mph /  13km/h 70% 0.00in /  0mm 40.0 W/m2
16:53 44.4 °F /  6.9 °C 35.6 °F /  2 °C 29.72in /  1006.3hPa South 8.0mph /  12.9km/h 8.1mph /  13km/h 71% 0.00in /  0mm 26.0 W/m2
16:58 44.2 °F /  6.8 °C 35.7 °F /  2.1 °C 29.72in /  1006.3hPa SSW 7.4mph /  11.9km/h 9.2mph /  14.8km/h 72% 0.00in /  0mm 21.0 W/m2
17:03 43.8 °F /  6.6 °C 35.4 °F /  1.9 °C 29.72in /  1006.3hPa SSE 5.2mph /  8.4km/h 11.5mph /  18.5km/h 72% 0.00in /  0mm 11.0 W/m2
17:08 43.3 °F /  6.3 °C 35.2 °F /  1.8 °C 29.71in /  1006hPa SE 9.2mph /  14.8km/h 12.0mph /  19.3km/h 73% 0.00in /  0mm 9.0 W/m2
17:13 43.2 °F /  6.2 °C 35.1 °F /  1.7 °C 29.72in /  1006.3hPa South 8.0mph /  12.9km/h 15.0mph /  24.1km/h 73% 0.00in /  0mm 5.0 W/m2
17:18 42.8 °F /  6 °C 35.1 °F /  1.7 °C 29.72in /  1006.3hPa SSE 8.4mph /  13.5km/h 10.8mph /  17.4km/h 74% 0.00in /  0mm 0.0 W/m2
17:23 42.7 °F /  5.9 °C 35.3 °F /  1.8 °C 29.72in /  1006.3hPa South 9.6mph /  15.4km/h 11.5mph /  18.5km/h 75% 0.00in /  0mm 0.0 W/m2
17:28 42.3 °F /  5.7 °C 34.9 °F /  1.6 °C 29.72in /  1006.3hPa South 5.4mph /  8.7km/h 8.1mph /  13km/h 75% 0.00in /  0mm 0.0 W/m2
17:33 42.2 °F /  5.7 °C 34.8 °F /  1.6 °C 29.72in /  1006.3hPa South 9.2mph /  14.8km/h 9.2mph /  14.8km/h 75% 0.00in /  0mm 0.0 W/m2
17:39 41.9 °F /  5.5 °C 34.9 °F /  1.6 °C 29.71in /  1006hPa South 6.9mph /  11.1km/h 10.4mph /  16.7km/h 76% 0.00in /  0mm 0.0 W/m2
17:44 41.7 °F /  5.4 °C 34.7 °F /  1.5 °C 29.71in /  1006hPa SSW 4.8mph /  7.7km/h 7.2mph /  11.6km/h 76% 0.00in /  0mm 0.0 W/m2
17:49 41.4 °F /  5.2 °C 34.7 °F /  1.5 °C 29.71in /  1006hPa South 7.8mph /  12.6km/h 11.5mph /  18.5km/h 77% 0.00in /  0mm 0.0 W/m2
17:54 41.4 °F /  5.2 °C 34.7 °F /  1.5 °C 29.71in /  1006hPa South 11.3mph /  18.2km/h 16.8mph /  27km/h 77% 0.00in /  0mm 0.0 W/m2
17:59 41.0 °F /  5 °C 34.7 °F /  1.5 °C 29.71in /  1006hPa South 6.8mph /  10.9km/h 9.2mph /  14.8km/h 78% 0.00in /  0mm 0.0 W/m2
18:04 40.9 °F /  4.9 °C 34.6 °F /  1.4 °C 29.71in /  1006hPa SSW 4.7mph /  7.6km/h 5.8mph /  9.3km/h 78% 0.00in /  0mm 0.0 W/m2
18:09 40.9 °F /  4.9 °C 34.6 °F /  1.4 °C 29.71in /  1006hPa SSW 9.6mph /  15.4km/h 12.0mph /  19.3km/h 78% 0.00in /  0mm 0.0 W/m2
18:14 40.7 °F /  4.8 °C 34.4 °F /  1.3 °C 29.71in /  1006hPa SSW 6.1mph /  9.8km/h 9.2mph /  14.8km/h 78% 0.00in /  0mm 0.0 W/m2
18:19 40.6 °F /  4.8 °C 34.6 °F /  1.4 °C 29.73in /  1006.7hPa SW 6.5mph /  10.5km/h 6.9mph /  11.1km/h 79% 0.00in /  0mm 0.0 W/m2
18:24 40.2 °F /  4.6 °C 34.5 °F /  1.4 °C 29.73in /  1006.7hPa South 10.2mph /  16.4km/h 12.7mph /  20.4km/h 80% 0.00in /  0mm 0.0 W/m2
18:29 40.1 °F /  4.5 °C 34.4 °F /  1.3 °C 29.73in /  1006.7hPa SSW 7.4mph /  11.9km/h 10.8mph /  17.4km/h 80% 0.00in /  0mm 0.0 W/m2
18:35 40.0 °F /  4.4 °C 34.3 °F /  1.3 °C 29.73in /  1006.7hPa SSW 5.6mph /  9km/h 6.9mph /  11.1km/h 80% 0.00in /  0mm 0.0 W/m2
18:40 39.7 °F /  4.3 °C 34.3 °F /  1.3 °C 29.73in /  1006.7hPa SSW 6.3mph /  10.1km/h 8.4mph /  13.5km/h 81% 0.00in /  0mm 0.0 W/m2
18:45 39.8 °F /  4.3 °C 34.4 °F /  1.3 °C 29.73in /  1006.7hPa SSW 6.5mph /  10.5km/h 8.1mph /  13km/h 81% 0.00in /  0mm 0.0 W/m2
18:50 39.7 °F /  4.3 °C 34.3 °F /  1.3 °C 29.72in /  1006.3hPa SSE 8.2mph /  13.2km/h 12.0mph /  19.3km/h 81% 0.00in /  0mm 0.0 W/m2
18:55 39.6 °F /  4.2 °C 34.6 °F /  1.4 °C 29.72in /  1006.3hPa South 10.7mph /  17.2km/h 15.0mph /  24.1km/h 82% 0.00in /  0mm 0.0 W/m2
19:00 39.6 °F /  4.2 °C 34.6 °F /  1.4 °C 29.72in /  1006.3hPa South 9.8mph /  15.8km/h 11.5mph /  18.5km/h 82% 0.00in /  0mm 0.0 W/m2
19:05 39.7 °F /  4.3 °C 34.7 °F /  1.5 °C 29.71in /  1006hPa SSW 7.8mph /  12.6km/h 11.5mph /  18.5km/h 82% 0.00in /  0mm 0.0 W/m2
19:10 39.6 °F /  4.2 °C 34.9 °F /  1.6 °C 29.71in /  1006hPa SSW 6.7mph /  10.8km/h 9.2mph /  14.8km/h 83% 0.00in /  0mm 0.0 W/m2
19:15 39.6 °F /  4.2 °C 34.9 °F /  1.6 °C 29.70in /  1005.6hPa SSW 11.6mph /  18.7km/h 16.1mph /  25.9km/h 83% 0.00in /  0mm 0.0 W/m2
19:21 39.4 °F /  4.1 °C 34.7 °F /  1.5 °C 29.70in /  1005.6hPa SSE 9.7mph /  15.6km/h 12.0mph /  19.3km/h 83% 0.00in /  0mm 0.0 W/m2
19:26 39.5 °F /  4.2 °C 34.8 °F /  1.6 °C 29.70in /  1005.6hPa SSW 13.6mph /  21.9km/h 19.6mph /  31.5km/h 83% 0.00in /  0mm 0.0 W/m2
19:31 39.5 °F /  4.2 °C 35.1 °F /  1.7 °C 29.70in /  1005.6hPa South 15.5mph /  24.9km/h 21.9mph /  35.2km/h 84% 0.00in /  0mm 0.0 W/m2
19:36 39.4 °F /  4.1 °C 35.0 °F /  1.7 °C 29.70in /  1005.6hPa SSE 10.6mph /  17.1km/h 15.0mph /  24.1km/h 84% 0.00in /  0mm 0.0 W/m2
19:41 39.4 °F /  4.1 °C 35.0 °F /  1.7 °C 29.70in /  1005.6hPa SSW 8.4mph /  13.5km/h 12.0mph /  19.3km/h 84% 0.00in /  0mm 0.0 W/m2
19:46 39.3 °F /  4.1 °C 34.9 °F /  1.6 °C 29.70in /  1005.6hPa SSW 12.5mph /  20.1km/h 15.0mph /  24.1km/h 84% 0.00in /  0mm 0.0 W/m2
19:51 39.4 °F /  4.1 °C 35.0 °F /  1.7 °C 29.71in /  1006hPa SSW 10.8mph /  17.4km/h 11.5mph /  18.5km/h 84% 0.00in /  0mm 0.0 W/m2
19:56 39.3 °F /  4.1 °C 35.2 °F /  1.8 °C 29.70in /  1005.6hPa SW 10.9mph /  17.5km/h 15.6mph /  25.1km/h 85% 0.00in /  0mm 0.0 W/m2
20:01 39.1 °F /  3.9 °C 35.0 °F /  1.7 °C 29.70in /  1005.6hPa South 9.0mph /  14.5km/h 10.4mph /  16.7km/h 85% 0.00in /  0mm 0.0 W/m2
20:06 39.0 °F /  3.9 °C 34.9 °F /  1.6 °C 29.70in /  1005.6hPa South 10.0mph /  16.1km/h 12.7mph /  20.4km/h 85% 0.00in /  0mm 0.0 W/m2
20:11 39.1 °F /  3.9 °C 35.3 °F /  1.8 °C 29.70in /  1005.6hPa SSW 11.8mph /  19km/h 17.3mph /  27.8km/h 86% 0.00in /  0mm 0.0 W/m2
20:16 39.0 °F /  3.9 °C 35.2 °F /  1.8 °C 29.70in /  1005.6hPa SSW 10.0mph /  16.1km/h 16.1mph /  25.9km/h 86% 0.00in /  0mm 0.0 W/m2
20:21 38.9 °F /  3.8 °C 35.1 °F /  1.7 °C 29.70in /  1005.6hPa SSW 8.4mph /  13.5km/h 15.6mph /  25.1km/h 86% 0.00in /  0mm 0.0 W/m2
20:26 39.1 °F /  3.9 °C 35.3 °F /  1.8 °C 29.70in /  1005.6hPa SSW 13.5mph /  21.7km/h 15.6mph /  25.1km/h 86% 0.00in /  0mm 0.0 W/m2
20:31 39.0 °F /  3.9 °C 35.5 °F /  1.9 °C 29.70in /  1005.6hPa SSW 10.6mph /  17.1km/h 19.6mph /  31.5km/h 87% 0.00in /  0mm 0.0 W/m2
20:36 38.8 °F /  3.8 °C 35.3 °F /  1.8 °C 29.70in /  1005.6hPa South 14.4mph /  23.2km/h 14.4mph /  23.2km/h 87% 0.00in /  0mm 0.0 W/m2
20:42 38.8 °F /  3.8 °C 35.3 °F /  1.8 °C 29.70in /  1005.6hPa SSW 10.3mph /  16.6km/h 15.0mph /  24.1km/h 87% 0.00in /  0mm 0.0 W/m2
20:47 38.7 °F /  3.7 °C 35.5 °F /  1.9 °C 29.71in /  1006hPa SSW 10.0mph /  16.1km/h 12.0mph /  19.3km/h 88% 0.00in /  0mm 0.0 W/m2
20:52 38.7 °F /  3.7 °C 35.5 °F /  1.9 °C 29.71in /  1006hPa SSW 8.0mph /  12.9km/h 15.0mph /  24.1km/h 88% 0.00in /  0mm 0.0 W/m2
20:57 38.5 °F /  3.6 °C 35.3 °F /  1.8 °C 29.71in /  1006hPa SSW 8.7mph /  14km/h 10.8mph /  17.4km/h 88% 0.00in /  0mm 0.0 W/m2
21:02 38.4 °F /  3.6 °C 35.2 °F /  1.8 °C 29.70in /  1005.6hPa SSW 7.7mph /  12.4km/h 7.7mph /  12.4km/h 88% 0.00in /  0mm 0.0 W/m2
21:07 38.4 °F /  3.6 °C 35.4 °F /  1.9 °C 29.70in /  1005.6hPa SSW 9.0mph /  14.5km/h 11.0mph /  17.7km/h 89% 0.00in /  0mm 0.0 W/m2
21:12 38.6 °F /  3.7 °C 35.4 °F /  1.9 °C 29.70in /  1005.6hPa SSW 11.6mph /  18.7km/h 15.0mph /  24.1km/h 88% 0.00in /  0mm 0.0 W/m2
21:17 38.7 °F /  3.7 °C 35.5 °F /  1.9 °C 29.70in /  1005.6hPa South 13.4mph /  21.6km/h 15.0mph /  24.1km/h 88% 0.00in /  0mm 0.0 W/m2
21:22 38.7 °F /  3.7 °C 35.5 °F /  1.9 °C 29.69in /  1005.3hPa South 11.1mph /  17.9km/h 12.7mph /  20.4km/h 88% 0.00in /  0mm 0.0 W/m2
21:31 38.6 °F /  3.7 °C 35.4 °F /  1.9 °C 29.69in /  1005.3hPa SW 7.3mph /  11.7km/h 9.2mph /  14.8km/h 88% 0.00in /  0mm 0.0 W/m2
21:36 38.7 °F /  3.7 °C 35.7 °F /  2.1 °C 29.69in /  1005.3hPa SSW 13.1mph /  21.1km/h 21.9mph /  35.2km/h 89% 0.00in /  0mm 0.0 W/m2
21:41 38.7 °F /  3.7 °C 35.7 °F /  2.1 °C 29.69in /  1005.3hPa SSW 10.0mph /  16.1km/h 10.4mph /  16.7km/h 89% 0.00in /  0mm 0.0 W/m2
21:46 38.7 °F /  3.7 °C 35.7 °F /  2.1 °C 29.69in /  1005.3hPa South 10.8mph /  17.4km/h 12.7mph /  20.4km/h 89% 0.00in /  0mm 0.0 W/m2
21:51 38.7 °F /  3.7 °C 35.7 °F /  2.1 °C 29.69in /  1005.3hPa South 11.4mph /  18.3km/h 12.0mph /  19.3km/h 89% 0.00in /  0mm 0.0 W/m2
21:56 38.6 °F /  3.7 °C 35.6 °F /  2 °C 29.69in /  1005.3hPa South 8.7mph /  14km/h 10.4mph /  16.7km/h 89% 0.00in /  0mm 0.0 W/m2
22:01 38.6 °F /  3.7 °C 35.9 °F /  2.2 °C 29.69in /  1005.3hPa South 13.2mph /  21.2km/h 16.1mph /  25.9km/h 90% 0.00in /  0mm 0.0 W/m2
22:06 38.3 °F /  3.5 °C 35.6 °F /  2 °C 29.69in /  1005.3hPa SSW 7.6mph /  12.2km/h 12.7mph /  20.4km/h 90% 0.00in /  0mm 0.0 W/m2
22:11 38.6 °F /  3.7 °C 35.9 °F /  2.2 °C 29.68in /  1005hPa SSW 14.9mph /  24km/h 18.4mph /  29.6km/h 90% 0.00in /  0mm 0.0 W/m2
22:17 38.4 °F /  3.6 °C 35.7 °F /  2.1 °C 29.68in /  1005hPa SSW 8.6mph /  13.8km/h 10.4mph /  16.7km/h 90% 0.00in /  0mm 0.0 W/m2
22:22 38.0 °F /  3.3 °C 35.3 °F /  1.8 °C 29.68in /  1005hPa South 6.8mph /  10.9km/h 9.2mph /  14.8km/h 90% 0.00in /  0mm 0.0 W/m2
22:27 38.2 °F /  3.4 °C 35.5 °F /  1.9 °C 29.69in /  1005.3hPa SSW 10.3mph /  16.6km/h 12.7mph /  20.4km/h 90% 0.00in /  0mm 0.0 W/m2
22:32 38.1 °F /  3.4 °C 35.7 °F /  2.1 °C 29.69in /  1005.3hPa SSW 9.1mph /  14.6km/h 10.4mph /  16.7km/h 91% 0.00in /  0mm 0.0 W/m2
22:37 38.1 °F /  3.4 °C 35.7 °F /  2.1 °C 29.69in /  1005.3hPa SW 5.6mph /  9km/h 6.9mph /  11.1km/h 91% 0.00in /  0mm 0.0 W/m2
22:42 38.3 °F /  3.5 °C 35.9 °F /  2.2 °C 29.69in /  1005.3hPa SW 5.9mph /  9.5km/h 6.0mph /  9.7km/h 91% 0.00in /  0mm 0.0 W/m2
22:47 38.2 °F /  3.4 °C 35.5 °F /  1.9 °C 29.69in /  1005.3hPa SSW 5.1mph /  8.2km/h 7.2mph /  11.6km/h 90% 0.00in /  0mm 0.0 W/m2
22:52 38.3 °F /  3.5 °C 35.9 °F /  2.2 °C 29.69in /  1005.3hPa SSW 4.9mph /  7.9km/h 6.0mph /  9.7km/h 91% 0.00in /  0mm 0.0 W/m2
22:57 38.2 °F /  3.4 °C 35.8 °F /  2.1 °C 29.69in /  1005.3hPa SSW 6.8mph /  10.9km/h 8.4mph /  13.5km/h 91% 0.00in /  0mm 0.0 W/m2
23:02 37.9 °F /  3.3 °C 35.5 °F /  1.9 °C 29.69in /  1005.3hPa South 5.8mph /  9.3km/h 7.2mph /  11.6km/h 91% 0.00in /  0mm 0.0 W/m2
23:07 38.1 °F /  3.4 °C 35.7 °F /  2.1 °C 29.68in /  1005hPa WSW 7.5mph /  12.1km/h 9.2mph /  14.8km/h 91% 0.00in /  0mm 0.0 W/m2
23:12 38.0 °F /  3.3 °C 35.6 °F /  2 °C 29.68in /  1005hPa South 2.4mph /  3.9km/h 5.8mph /  9.3km/h 91% 0.00in /  0mm 0.0 W/m2
23:17 37.8 °F /  3.2 °C 35.4 °F /  1.9 °C 29.68in /  1005hPa SW 5.9mph /  9.5km/h 5.9mph /  9.5km/h 91% 0.00in /  0mm 0.0 W/m2
23:22 37.9 °F /  3.3 °C 35.5 °F /  1.9 °C 29.68in /  1005hPa SSW 3.6mph /  5.8km/h 5.8mph /  9.3km/h 91% 0.00in /  0mm 0.0 W/m2
23:27 37.7 °F /  3.2 °C 35.3 °F /  1.8 °C 29.68in /  1005hPa SSW 0.8mph /  1.3km/h 2.4mph /  3.9km/h 91% 0.00in /  0mm 0.0 W/m2
23:32 37.8 °F /  3.2 °C 35.4 °F /  1.9 °C 29.69in /  1005.3hPa WSW 2.3mph /  3.7km/h 8.1mph /  13km/h 91% 0.00in /  0mm 0.0 W/m2
23:38 37.7 °F /  3.2 °C 35.3 °F /  1.8 °C 29.69in /  1005.3hPa WSW 1.0mph /  1.6km/h 1.2mph /  1.9km/h 91% 0.00in /  0mm 0.0 W/m2
23:43 37.7 °F /  3.2 °C 35.3 °F /  1.8 °C 29.69in /  1005.3hPa SW 5.8mph /  9.3km/h 7.2mph /  11.6km/h 91% 0.00in /  0mm 0.0 W/m2
23:48 37.8 °F /  3.2 °C 35.4 °F /  1.9 °C 29.68in /  1005hPa SSW 9.2mph /  14.8km/h 10.4mph /  16.7km/h 91% 0.00in /  0mm 0.0 W/m2
23:53 37.8 °F /  3.2 °C 35.4 °F /  1.9 °C 29.68in /  1005hPa SSW 7.7mph /  12.4km/h 9.6mph /  15.4km/h 91% 0.00in /  0mm 0.0 W/m2
23:58 37.8 °F /  3.2 °C 35.4 °F /  1.9 °C 29.68in /  1005hPa SSW 8.8mph /  14.2km/h 12.0mph /  19.3km/h 91% 0.00in /  0mm 0.0 W/m2
Soleil - Laurel Canyon
Compliments of Weather Underground - 3.25 mb